sensor_id;sensor_type;location;lat;lon;timestamp;P1;durP1;ratioP1;P2;durP2;ratioP2
57291;SDS011;43144;50.972;18.220;2022-09-11T00:00:51;8.40;;;7.60;;
57291;SDS011;43144;50.972;18.220;2022-09-11T00:03:20;8.20;;;7.60;;
57291;SDS011;43144;50.972;18.220;2022-09-11T00:05:48;8.60;;;7.90;;
57291;SDS011;43144;50.972;18.220;2022-09-11T00:08:18;10.50;;;9.60;;
57291;SDS011;43144;50.972;18.220;2022-09-11T00:10:46;9.10;;;8.40;;
57291;SDS011;43144;50.972;18.220;2022-09-11T00:13:16;7.80;;;7.20;;
57291;SDS011;43144;50.972;18.220;2022-09-11T00:15:45;8.30;;;7.60;;
57291;SDS011;43144;50.972;18.220;2022-09-11T00:18:16;7.40;;;6.90;;
57291;SDS011;43144;50.972;18.220;2022-09-11T00:20:47;7.80;;;7.10;;
57291;SDS011;43144;50.972;18.220;2022-09-11T00:23:16;8.50;;;7.80;;
57291;SDS011;43144;50.972;18.220;2022-09-11T00:25:45;7.90;;;7.30;;
57291;SDS011;43144;50.972;18.220;2022-09-11T00:28:15;7.10;;;6.50;;
57291;SDS011;43144;50.972;18.220;2022-09-11T00:30:44;7.10;;;6.30;;
57291;SDS011;43144;50.972;18.220;2022-09-11T00:33:14;7.00;;;6.40;;
57291;SDS011;43144;50.972;18.220;2022-09-11T00:35:42;7.60;;;7.00;;
57291;SDS011;43144;50.972;18.220;2022-09-11T00:38:18;8.00;;;7.50;;
57291;SDS011;43144;50.972;18.220;2022-09-11T00:40:46;7.60;;;7.10;;
57291;SDS011;43144;50.972;18.220;2022-09-11T00:43:16;7.30;;;6.60;;
57291;SDS011;43144;50.972;18.220;2022-09-11T00:45:44;6.70;;;6.30;;
57291;SDS011;43144;50.972;18.220;2022-09-11T00:48:15;9.50;;;8.70;;
57291;SDS011;43144;50.972;18.220;2022-09-11T00:50:46;13.40;;;12.20;;
57291;SDS011;43144;50.972;18.220;2022-09-11T00:53:16;12.90;;;11.90;;
57291;SDS011;43144;50.972;18.220;2022-09-11T00:55:47;9.70;;;9.00;;
57291;SDS011;43144;50.972;18.220;2022-09-11T00:58:18;8.60;;;7.80;;
57291;SDS011;43144;50.972;18.220;2022-09-11T01:00:49;8.20;;;7.60;;
57291;SDS011;43144;50.972;18.220;2022-09-11T01:03:20;9.00;;;8.10;;
57291;SDS011;43144;50.972;18.220;2022-09-11T01:05:48;7.90;;;7.00;;
57291;SDS011;43144;50.972;18.220;2022-09-11T01:08:17;6.70;;;6.20;;
57291;SDS011;43144;50.972;18.220;2022-09-11T01:10:48;6.80;;;6.20;;
57291;SDS011;43144;50.972;18.220;2022-09-11T01:13:26;6.50;;;6.00;;
57291;SDS011;43144;50.972;18.220;2022-09-11T01:16:00;7.00;;;6.40;;
57291;SDS011;43144;50.972;18.220;2022-09-11T01:18:34;7.10;;;6.40;;
57291;SDS011;43144;50.972;18.220;2022-09-11T01:21:11;6.90;;;6.40;;
57291;SDS011;43144;50.972;18.220;2022-09-11T01:23:56;6.70;;;6.10;;
57291;SDS011;43144;50.972;18.220;2022-09-11T01:26:37;6.10;;;5.60;;
57291;SDS011;43144;50.972;18.220;2022-09-11T01:29:14;5.60;;;5.10;;
57291;SDS011;43144;50.972;18.220;2022-09-11T01:31:46;5.90;;;5.50;;
57291;SDS011;43144;50.972;18.220;2022-09-11T01:34:19;5.80;;;5.40;;
57291;SDS011;43144;50.972;18.220;2022-09-11T01:36:52;5.00;;;4.70;;
57291;SDS011;43144;50.972;18.220;2022-09-11T01:39:24;4.30;;;4.00;;
57291;SDS011;43144;50.972;18.220;2022-09-11T01:41:57;4.00;;;3.60;;
57291;SDS011;43144;50.972;18.220;2022-09-11T01:44:28;4.00;;;3.70;;
57291;SDS011;43144;50.972;18.220;2022-09-11T01:46:59;4.30;;;4.00;;
57291;SDS011;43144;50.972;18.220;2022-09-11T01:49:31;4.60;;;4.00;;
57291;SDS011;43144;50.972;18.220;2022-09-11T01:52:02;4.30;;;3.90;;
57291;SDS011;43144;50.972;18.220;2022-09-11T01:54:34;3.80;;;3.40;;
57291;SDS011;43144;50.972;18.220;2022-09-11T01:57:12;3.50;;;3.30;;
57291;SDS011;43144;50.972;18.220;2022-09-11T01:59:44;3.30;;;2.90;;
57291;SDS011;43144;50.972;18.220;2022-09-11T02:02:17;3.10;;;2.80;;
57291;SDS011;43144;50.972;18.220;2022-09-11T02:04:48;3.30;;;3.10;;
57291;SDS011;43144;50.972;18.220;2022-09-11T02:07:22;3.70;;;3.40;;
57291;SDS011;43144;50.972;18.220;2022-09-11T02:09:54;4.50;;;4.10;;
57291;SDS011;43144;50.972;18.220;2022-09-11T02:12:24;4.20;;;4.00;;
57291;SDS011;43144;50.972;18.220;2022-09-11T02:14:57;5.40;;;5.00;;
57291;SDS011;43144;50.972;18.220;2022-09-11T02:17:28;6.20;;;5.70;;
57291;SDS011;43144;50.972;18.220;2022-09-11T02:20:06;7.50;;;6.70;;
57291;SDS011;43144;50.972;18.220;2022-09-11T02:22:34;8.10;;;7.40;;
57291;SDS011;43144;50.972;18.220;2022-09-11T02:25:03;8.60;;;7.70;;
57291;SDS011;43144;50.972;18.220;2022-09-11T02:27:32;8.20;;;7.60;;
57291;SDS011;43144;50.972;18.220;2022-09-11T02:30:00;8.50;;;7.90;;
57291;SDS011;43144;50.972;18.220;2022-09-11T02:32:28;8.40;;;7.70;;
57291;SDS011;43144;50.972;18.220;2022-09-11T02:34:58;8.90;;;8.20;;
57291;SDS011;43144;50.972;18.220;2022-09-11T02:37:30;9.90;;;8.90;;
57291;SDS011;43144;50.972;18.220;2022-09-11T02:40:12;10.20;;;9.30;;
57291;SDS011;43144;50.972;18.220;2022-09-11T02:42:51;9.40;;;8.70;;
57291;SDS011;43144;50.972;18.220;2022-09-11T02:45:31;9.60;;;8.90;;
57291;SDS011;43144;50.972;18.220;2022-09-11T02:48:06;9.60;;;8.90;;
57291;SDS011;43144;50.972;18.220;2022-09-11T02:50:49;9.30;;;8.70;;
57291;SDS011;43144;50.972;18.220;2022-09-11T02:53:22;9.80;;;9.10;;
57291;SDS011;43144;50.972;18.220;2022-09-11T02:55:57;9.00;;;8.40;;
57291;SDS011;43144;50.972;18.220;2022-09-11T02:58:28;9.00;;;8.10;;
57291;SDS011;43144;50.972;18.220;2022-09-11T03:00:59;8.40;;;7.80;;
57291;SDS011;43144;50.972;18.220;2022-09-11T03:03:35;8.80;;;8.20;;
57291;SDS011;43144;50.972;18.220;2022-09-11T03:06:04;9.00;;;8.20;;
57291;SDS011;43144;50.972;18.220;2022-09-11T03:08:33;8.90;;;8.10;;
57291;SDS011;43144;50.972;18.220;2022-09-11T03:11:01;9.90;;;9.00;;
57291;SDS011;43144;50.972;18.220;2022-09-11T03:13:30;9.70;;;8.80;;
57291;SDS011;43144;50.972;18.220;2022-09-11T03:16:00;9.50;;;8.80;;
57291;SDS011;43144;50.972;18.220;2022-09-11T03:18:28;9.40;;;8.70;;
57291;SDS011;43144;50.972;18.220;2022-09-11T03:20:57;9.30;;;8.50;;
57291;SDS011;43144;50.972;18.220;2022-09-11T03:23:25;10.00;;;9.10;;
57291;SDS011;43144;50.972;18.220;2022-09-11T03:25:54;9.80;;;9.10;;
57291;SDS011;43144;50.972;18.220;2022-09-11T03:28:22;10.50;;;9.60;;
57291;SDS011;43144;50.972;18.220;2022-09-11T03:30:50;11.00;;;10.10;;
57291;SDS011;43144;50.972;18.220;2022-09-11T03:33:19;12.50;;;11.70;;
57291;SDS011;43144;50.972;18.220;2022-09-11T03:35:47;13.10;;;12.20;;
57291;SDS011;43144;50.972;18.220;2022-09-11T03:38:15;12.60;;;11.70;;
57291;SDS011;43144;50.972;18.220;2022-09-11T03:40:43;12.50;;;11.70;;
57291;SDS011;43144;50.972;18.220;2022-09-11T03:43:11;11.40;;;10.50;;
57291;SDS011;43144;50.972;18.220;2022-09-11T03:45:40;10.40;;;9.70;;
57291;SDS011;43144;50.972;18.220;2022-09-11T03:48:08;8.70;;;7.90;;
57291;SDS011;43144;50.972;18.220;2022-09-11T03:50:36;8.10;;;7.40;;
57291;SDS011;43144;50.972;18.220;2022-09-11T03:53:04;7.90;;;7.20;;
57291;SDS011;43144;50.972;18.220;2022-09-11T03:55:33;7.60;;;7.00;;
57291;SDS011;43144;50.972;18.220;2022-09-11T03:58:01;6.90;;;6.40;;
57291;SDS011;43144;50.972;18.220;2022-09-11T04:00:29;6.80;;;6.30;;
57291;SDS011;43144;50.972;18.220;2022-09-11T04:02:58;7.10;;;6.50;;
57291;SDS011;43144;50.972;18.220;2022-09-11T04:05:27;7.70;;;7.00;;
57291;SDS011;43144;50.972;18.220;2022-09-11T04:07:55;7.70;;;7.20;;
57291;SDS011;43144;50.972;18.220;2022-09-11T04:10:24;7.70;;;7.10;;
57291;SDS011;43144;50.972;18.220;2022-09-11T04:12:52;8.30;;;7.70;;
57291;SDS011;43144;50.972;18.220;2022-09-11T04:15:20;6.40;;;6.00;;
57291;SDS011;43144;50.972;18.220;2022-09-11T04:17:49;7.20;;;6.50;;
57291;SDS011;43144;50.972;18.220;2022-09-11T04:20:17;6.50;;;5.90;;
57291;SDS011;43144;50.972;18.220;2022-09-11T04:22:46;7.00;;;6.50;;
57291;SDS011;43144;50.972;18.220;2022-09-11T04:25:14;7.10;;;6.60;;
57291;SDS011;43144;50.972;18.220;2022-09-11T04:27:43;6.50;;;6.00;;
57291;SDS011;43144;50.972;18.220;2022-09-11T04:30:11;6.70;;;6.10;;
57291;SDS011;43144;50.972;18.220;2022-09-11T04:32:40;7.10;;;6.50;;
57291;SDS011;43144;50.972;18.220;2022-09-11T04:35:08;7.10;;;6.40;;
57291;SDS011;43144;50.972;18.220;2022-09-11T04:37:36;7.30;;;6.60;;
57291;SDS011;43144;50.972;18.220;2022-09-11T04:40:05;7.00;;;6.50;;
57291;SDS011;43144;50.972;18.220;2022-09-11T04:42:34;7.80;;;7.20;;
57291;SDS011;43144;50.972;18.220;2022-09-11T04:45:02;8.40;;;7.60;;
57291;SDS011;43144;50.972;18.220;2022-09-11T04:47:31;8.00;;;7.40;;
57291;SDS011;43144;50.972;18.220;2022-09-11T04:49:59;8.10;;;7.40;;
57291;SDS011;43144;50.972;18.220;2022-09-11T04:52:27;8.20;;;7.50;;
57291;SDS011;43144;50.972;18.220;2022-09-11T04:54:55;8.90;;;8.10;;
57291;SDS011;43144;50.972;18.220;2022-09-11T04:57:24;8.40;;;7.80;;
57291;SDS011;43144;50.972;18.220;2022-09-11T04:59:52;8.20;;;7.60;;
57291;SDS011;43144;50.972;18.220;2022-09-11T05:02:20;8.60;;;8.00;;
57291;SDS011;43144;50.972;18.220;2022-09-11T05:04:49;9.00;;;8.20;;
57291;SDS011;43144;50.972;18.220;2022-09-11T05:07:17;9.00;;;8.20;;
57291;SDS011;43144;50.972;18.220;2022-09-11T05:09:45;9.30;;;8.50;;
57291;SDS011;43144;50.972;18.220;2022-09-11T05:12:13;9.90;;;9.10;;
57291;SDS011;43144;50.972;18.220;2022-09-11T05:14:42;11.50;;;10.00;;
57291;SDS011;43144;50.972;18.220;2022-09-11T05:17:10;11.20;;;10.10;;
57291;SDS011;43144;50.972;18.220;2022-09-11T05:19:39;11.00;;;9.90;;
57291;SDS011;43144;50.972;18.220;2022-09-11T05:22:07;12.20;;;11.10;;
57291;SDS011;43144;50.972;18.220;2022-09-11T05:24:36;12.90;;;11.70;;
57291;SDS011;43144;50.972;18.220;2022-09-11T05:27:04;13.30;;;12.00;;
57291;SDS011;43144;50.972;18.220;2022-09-11T05:29:32;13.70;;;12.40;;
57291;SDS011;43144;50.972;18.220;2022-09-11T05:32:01;13.20;;;12.00;;
57291;SDS011;43144;50.972;18.220;2022-09-11T05:34:29;12.40;;;11.40;;
57291;SDS011;43144;50.972;18.220;2022-09-11T05:36:57;13.70;;;12.40;;
57291;SDS011;43144;50.972;18.220;2022-09-11T05:39:26;12.50;;;11.50;;
57291;SDS011;43144;50.972;18.220;2022-09-11T05:41:54;12.70;;;11.50;;
57291;SDS011;43144;50.972;18.220;2022-09-11T05:44:22;14.30;;;12.90;;
57291;SDS011;43144;50.972;18.220;2022-09-11T05:46:50;15.70;;;14.40;;
57291;SDS011;43144;50.972;18.220;2022-09-11T05:49:18;12.90;;;11.90;;
57291;SDS011;43144;50.972;18.220;2022-09-11T05:51:47;19.80;;;17.60;;
57291;SDS011;43144;50.972;18.220;2022-09-11T05:54:15;15.10;;;13.70;;
57291;SDS011;43144;50.972;18.220;2022-09-11T05:56:43;14.10;;;12.90;;
57291;SDS011;43144;50.972;18.220;2022-09-11T05:59:12;14.10;;;12.70;;
57291;SDS011;43144;50.972;18.220;2022-09-11T06:01:40;12.90;;;11.60;;
57291;SDS011;43144;50.972;18.220;2022-09-11T06:04:09;12.70;;;11.60;;
57291;SDS011;43144;50.972;18.220;2022-09-11T06:06:38;12.80;;;11.60;;
57291;SDS011;43144;50.972;18.220;2022-09-11T06:09:07;12.90;;;11.90;;
57291;SDS011;43144;50.972;18.220;2022-09-11T06:11:35;12.80;;;11.60;;
57291;SDS011;43144;50.972;18.220;2022-09-11T06:14:03;14.00;;;12.60;;
57291;SDS011;43144;50.972;18.220;2022-09-11T06:16:32;12.70;;;11.70;;
57291;SDS011;43144;50.972;18.220;2022-09-11T06:19:00;13.90;;;12.50;;
57291;SDS011;43144;50.972;18.220;2022-09-11T06:21:28;14.90;;;13.40;;
57291;SDS011;43144;50.972;18.220;2022-09-11T06:23:56;14.40;;;13.00;;
57291;SDS011;43144;50.972;18.220;2022-09-11T06:26:25;15.00;;;13.60;;
57291;SDS011;43144;50.972;18.220;2022-09-11T06:28:53;14.10;;;12.80;;
57291;SDS011;43144;50.972;18.220;2022-09-11T06:31:22;15.20;;;13.70;;
57291;SDS011;43144;50.972;18.220;2022-09-11T06:33:51;15.10;;;13.70;;
57291;SDS011;43144;50.972;18.220;2022-09-11T06:36:20;13.10;;;11.90;;
57291;SDS011;43144;50.972;18.220;2022-09-11T06:38:52;13.40;;;12.10;;
57291;SDS011;43144;50.972;18.220;2022-09-11T06:41:21;13.40;;;12.30;;
57291;SDS011;43144;50.972;18.220;2022-09-11T06:43:49;13.90;;;12.70;;
57291;SDS011;43144;50.972;18.220;2022-09-11T06:46:18;13.30;;;12.20;;
57291;SDS011;43144;50.972;18.220;2022-09-11T06:48:48;14.50;;;13.40;;
57291;SDS011;43144;50.972;18.220;2022-09-11T06:51:17;14.50;;;13.10;;
57291;SDS011;43144;50.972;18.220;2022-09-11T06:53:46;13.40;;;12.20;;
57291;SDS011;43144;50.972;18.220;2022-09-11T06:56:14;13.20;;;12.20;;
57291;SDS011;43144;50.972;18.220;2022-09-11T06:58:43;11.00;;;10.10;;
57291;SDS011;43144;50.972;18.220;2022-09-11T07:01:13;10.80;;;9.70;;
57291;SDS011;43144;50.972;18.220;2022-09-11T07:03:42;15.60;;;14.10;;
57291;SDS011;43144;50.972;18.220;2022-09-11T07:06:11;10.60;;;9.70;;
57291;SDS011;43144;50.972;18.220;2022-09-11T07:08:39;9.80;;;9.10;;
57291;SDS011;43144;50.972;18.220;2022-09-11T07:11:08;8.40;;;7.70;;
57291;SDS011;43144;50.972;18.220;2022-09-11T07:13:37;7.50;;;6.70;;
57291;SDS011;43144;50.972;18.220;2022-09-11T07:16:07;4.80;;;4.40;;
57291;SDS011;43144;50.972;18.220;2022-09-11T07:18:36;5.90;;;5.50;;
57291;SDS011;43144;50.972;18.220;2022-09-11T07:21:06;8.20;;;7.70;;
57291;SDS011;43144;50.972;18.220;2022-09-11T07:23:34;8.50;;;7.70;;
57291;SDS011;43144;50.972;18.220;2022-09-11T07:26:04;9.40;;;8.70;;
57291;SDS011;43144;50.972;18.220;2022-09-11T07:28:33;8.60;;;7.90;;
57291;SDS011;43144;50.972;18.220;2022-09-11T07:31:04;8.60;;;8.10;;
57291;SDS011;43144;50.972;18.220;2022-09-11T07:33:34;8.40;;;7.80;;
57291;SDS011;43144;50.972;18.220;2022-09-11T07:36:06;8.00;;;7.50;;
57291;SDS011;43144;50.972;18.220;2022-09-11T07:38:35;6.90;;;6.40;;
57291;SDS011;43144;50.972;18.220;2022-09-11T07:41:03;6.60;;;6.00;;
57291;SDS011;43144;50.972;18.220;2022-09-11T07:43:31;7.80;;;7.10;;
57291;SDS011;43144;50.972;18.220;2022-09-11T07:46:00;9.50;;;8.80;;
57291;SDS011;43144;50.972;18.220;2022-09-11T07:48:29;9.40;;;8.70;;
57291;SDS011;43144;50.972;18.220;2022-09-11T07:50:58;9.50;;;8.60;;
57291;SDS011;43144;50.972;18.220;2022-09-11T07:53:27;8.90;;;8.20;;
57291;SDS011;43144;50.972;18.220;2022-09-11T07:56:01;8.50;;;7.80;;
57291;SDS011;43144;50.972;18.220;2022-09-11T08:00:59;10.00;;;9.20;;
57291;SDS011;43144;50.972;18.220;2022-09-11T08:03:27;8.70;;;8.10;;
57291;SDS011;43144;50.972;18.220;2022-09-11T08:05:57;9.10;;;8.00;;
57291;SDS011;43144;50.972;18.220;2022-09-11T08:08:25;8.60;;;8.00;;
57291;SDS011;43144;50.972;18.220;2022-09-11T08:10:54;8.50;;;7.90;;
57291;SDS011;43144;50.972;18.220;2022-09-11T08:13:22;8.00;;;7.20;;
57291;SDS011;43144;50.972;18.220;2022-09-11T08:15:50;8.10;;;7.50;;
57291;SDS011;43144;50.972;18.220;2022-09-11T08:18:19;8.60;;;8.00;;
57291;SDS011;43144;50.972;18.220;2022-09-11T08:20:47;9.30;;;8.70;;
57291;SDS011;43144;50.972;18.220;2022-09-11T08:23:15;7.80;;;7.20;;
57291;SDS011;43144;50.972;18.220;2022-09-11T08:25:44;7.30;;;6.70;;
57291;SDS011;43144;50.972;18.220;2022-09-11T08:28:12;6.70;;;6.20;;
57291;SDS011;43144;50.972;18.220;2022-09-11T08:30:40;7.40;;;6.80;;
57291;SDS011;43144;50.972;18.220;2022-09-11T08:33:08;7.90;;;7.40;;
57291;SDS011;43144;50.972;18.220;2022-09-11T08:35:38;7.80;;;7.20;;
57291;SDS011;43144;50.972;18.220;2022-09-11T08:38:07;8.70;;;8.00;;
57291;SDS011;43144;50.972;18.220;2022-09-11T08:40:36;8.40;;;7.80;;
57291;SDS011;43144;50.972;18.220;2022-09-11T08:43:08;8.60;;;7.90;;
57291;SDS011;43144;50.972;18.220;2022-09-11T08:45:40;8.50;;;7.70;;
57291;SDS011;43144;50.972;18.220;2022-09-11T08:48:09;7.30;;;6.70;;
57291;SDS011;43144;50.972;18.220;2022-09-11T08:50:37;7.00;;;6.50;;
57291;SDS011;43144;50.972;18.220;2022-09-11T08:53:08;6.40;;;6.00;;
57291;SDS011;43144;50.972;18.220;2022-09-11T08:55:42;6.40;;;6.00;;
57291;SDS011;43144;50.972;18.220;2022-09-11T08:58:13;6.30;;;5.70;;
57291;SDS011;43144;50.972;18.220;2022-09-11T09:00:48;6.10;;;5.70;;
57291;SDS011;43144;50.972;18.220;2022-09-11T09:03:33;6.40;;;6.00;;
57291;SDS011;43144;50.972;18.220;2022-09-11T09:08:46;8.70;;;6.50;;
57291;SDS011;43144;50.972;18.220;2022-09-11T09:11:21;7.80;;;7.20;;
57291;SDS011;43144;50.972;18.220;2022-09-11T09:13:58;6.40;;;6.00;;
57291;SDS011;43144;50.972;18.220;2022-09-11T09:16:39;6.90;;;6.50;;
57291;SDS011;43144;50.972;18.220;2022-09-11T09:19:13;6.60;;;6.20;;
57291;SDS011;43144;50.972;18.220;2022-09-11T09:21:44;6.60;;;6.00;;
57291;SDS011;43144;50.972;18.220;2022-09-11T09:24:20;5.90;;;5.40;;
57291;SDS011;43144;50.972;18.220;2022-09-11T09:26:49;6.10;;;5.70;;
57291;SDS011;43144;50.972;18.220;2022-09-11T09:29:19;6.30;;;5.90;;
57291;SDS011;43144;50.972;18.220;2022-09-11T09:31:50;5.80;;;5.40;;
57291;SDS011;43144;50.972;18.220;2022-09-11T09:34:21;5.30;;;5.00;;
57291;SDS011;43144;50.972;18.220;2022-09-11T09:36:54;5.70;;;5.20;;
57291;SDS011;43144;50.972;18.220;2022-09-11T09:39:26;6.20;;;5.80;;
57291;SDS011;43144;50.972;18.220;2022-09-11T09:42:00;5.40;;;5.10;;
57291;SDS011;43144;50.972;18.220;2022-09-11T09:44:41;5.30;;;4.90;;
57291;SDS011;43144;50.972;18.220;2022-09-11T09:47:14;5.00;;;4.70;;
57291;SDS011;43144;50.972;18.220;2022-09-11T09:49:43;5.40;;;5.00;;
57291;SDS011;43144;50.972;18.220;2022-09-11T09:52:14;5.10;;;4.80;;
57291;SDS011;43144;50.972;18.220;2022-09-11T09:54:46;4.80;;;4.40;;
57291;SDS011;43144;50.972;18.220;2022-09-11T09:57:21;4.50;;;4.20;;
57291;SDS011;43144;50.972;18.220;2022-09-11T09:59:51;4.60;;;4.30;;
57291;SDS011;43144;50.972;18.220;2022-09-11T10:05:06;4.10;;;3.90;;
57291;SDS011;43144;50.972;18.220;2022-09-11T10:07:47;3.80;;;3.50;;
57291;SDS011;43144;50.972;18.220;2022-09-11T10:10:25;3.60;;;3.30;;
57291;SDS011;43144;50.972;18.220;2022-09-11T10:12:55;6.90;;;6.40;;
57291;SDS011;43144;50.972;18.220;2022-09-11T10:15:25;3.90;;;3.60;;
57291;SDS011;43144;50.972;18.220;2022-09-11T10:17:53;5.00;;;4.10;;
57291;SDS011;43144;50.972;18.220;2022-09-11T10:20:46;3.30;;;3.10;;
57291;SDS011;43144;50.972;18.220;2022-09-11T10:23:22;3.40;;;3.10;;
57291;SDS011;43144;50.972;18.220;2022-09-11T10:25:52;3.10;;;2.90;;
57291;SDS011;43144;50.972;18.220;2022-09-11T10:28:24;3.00;;;2.80;;
57291;SDS011;43144;50.972;18.220;2022-09-11T10:30:56;2.90;;;2.70;;
57291;SDS011;43144;50.972;18.220;2022-09-11T10:33:26;3.40;;;2.80;;
57291;SDS011;43144;50.972;18.220;2022-09-11T10:35:56;3.20;;;2.90;;
57291;SDS011;43144;50.972;18.220;2022-09-11T10:38:30;2.90;;;2.70;;
57291;SDS011;43144;50.972;18.220;2022-09-11T10:41:03;3.10;;;2.70;;
57291;SDS011;43144;50.972;18.220;2022-09-11T10:43:34;2.70;;;2.50;;
57291;SDS011;43144;50.972;18.220;2022-09-11T10:46:21;3.50;;;2.30;;
57291;SDS011;43144;50.972;18.220;2022-09-11T10:48:52;2.50;;;2.30;;
57291;SDS011;43144;50.972;18.220;2022-09-11T10:51:22;2.60;;;2.40;;
57291;SDS011;43144;50.972;18.220;2022-09-11T10:53:55;2.30;;;2.10;;
57291;SDS011;43144;50.972;18.220;2022-09-11T10:56:29;2.50;;;2.30;;
57291;SDS011;43144;50.972;18.220;2022-09-11T10:58:58;2.60;;;2.40;;
57291;SDS011;43144;50.972;18.220;2022-09-11T11:01:31;3.00;;;2.80;;
57291;SDS011;43144;50.972;18.220;2022-09-11T11:04:01;2.80;;;2.60;;
57291;SDS011;43144;50.972;18.220;2022-09-11T11:06:35;2.30;;;2.10;;
57291;SDS011;43144;50.972;18.220;2022-09-11T11:09:17;2.60;;;2.50;;
57291;SDS011;43144;50.972;18.220;2022-09-11T11:11:57;2.70;;;2.50;;
57291;SDS011;43144;50.972;18.220;2022-09-11T11:14:40;2.70;;;2.60;;
57291;SDS011;43144;50.972;18.220;2022-09-11T11:17:18;3.40;;;2.40;;
57291;SDS011;43144;50.972;18.220;2022-09-11T11:19:56;2.70;;;2.10;;
57291;SDS011;43144;50.972;18.220;2022-09-11T11:22:42;2.20;;;2.00;;
57291;SDS011;43144;50.972;18.220;2022-09-11T11:25:22;2.40;;;2.30;;
57291;SDS011;43144;50.972;18.220;2022-09-11T11:27:59;2.90;;;2.60;;
57291;SDS011;43144;50.972;18.220;2022-09-11T11:30:34;2.40;;;2.20;;
57291;SDS011;43144;50.972;18.220;2022-09-11T11:33:12;2.10;;;2.00;;
57291;SDS011;43144;50.972;18.220;2022-09-11T11:35:52;2.60;;;2.30;;
57291;SDS011;43144;50.972;18.220;2022-09-11T11:38:26;3.00;;;2.70;;
57291;SDS011;43144;50.972;18.220;2022-09-11T11:40:58;3.10;;;2.80;;
57291;SDS011;43144;50.972;18.220;2022-09-11T11:43:30;2.60;;;2.40;;
57291;SDS011;43144;50.972;18.220;2022-09-11T11:46:02;3.00;;;2.80;;
57291;SDS011;43144;50.972;18.220;2022-09-11T11:48:34;3.30;;;3.00;;
57291;SDS011;43144;50.972;18.220;2022-09-11T11:51:05;3.20;;;3.00;;
57291;SDS011;43144;50.972;18.220;2022-09-11T11:53:35;3.50;;;3.20;;
57291;SDS011;43144;50.972;18.220;2022-09-11T11:56:07;3.00;;;2.70;;
57291;SDS011;43144;50.972;18.220;2022-09-11T11:58:40;3.00;;;2.80;;
57291;SDS011;43144;50.972;18.220;2022-09-11T12:01:16;2.90;;;2.70;;
57291;SDS011;43144;50.972;18.220;2022-09-11T12:03:49;3.00;;;2.70;;
57291;SDS011;43144;50.972;18.220;2022-09-11T12:06:21;2.90;;;2.70;;
57291;SDS011;43144;50.972;18.220;2022-09-11T12:08:49;2.70;;;2.50;;
57291;SDS011;43144;50.972;18.220;2022-09-11T12:11:24;2.70;;;2.50;;
57291;SDS011;43144;50.972;18.220;2022-09-11T12:13:54;3.10;;;2.90;;
57291;SDS011;43144;50.972;18.220;2022-09-11T12:16:25;3.20;;;3.00;;
57291;SDS011;43144;50.972;18.220;2022-09-11T12:19:01;2.90;;;2.70;;
57291;SDS011;43144;50.972;18.220;2022-09-11T12:21:40;2.70;;;2.50;;
57291;SDS011;43144;50.972;18.220;2022-09-11T12:24:11;2.40;;;2.20;;
57291;SDS011;43144;50.972;18.220;2022-09-11T12:26:42;2.50;;;2.30;;
57291;SDS011;43144;50.972;18.220;2022-09-11T12:37:27;4.10;;;3.70;;
57291;SDS011;43144;50.972;18.220;2022-09-11T12:40:02;4.10;;;3.80;;
57291;SDS011;43144;50.972;18.220;2022-09-11T12:52:48;5.10;;;4.70;;
57291;SDS011;43144;50.972;18.220;2022-09-11T12:55:24;5.20;;;4.80;;
57291;SDS011;43144;50.972;18.220;2022-09-11T12:57:56;4.70;;;4.40;;
57291;SDS011;43144;50.972;18.220;2022-09-11T13:00:30;5.60;;;5.20;;
57291;SDS011;43144;50.972;18.220;2022-09-11T13:03:00;6.20;;;5.70;;
57291;SDS011;43144;50.972;18.220;2022-09-11T13:05:33;5.20;;;4.80;;
57291;SDS011;43144;50.972;18.220;2022-09-11T13:08:02;5.20;;;4.80;;
57291;SDS011;43144;50.972;18.220;2022-09-11T13:10:35;5.60;;;5.20;;
57291;SDS011;43144;50.972;18.220;2022-09-11T13:13:04;5.10;;;4.80;;
57291;SDS011;43144;50.972;18.220;2022-09-11T13:15:55;5.30;;;4.90;;
57291;SDS011;43144;50.972;18.220;2022-09-11T13:18:24;5.00;;;4.50;;
57291;SDS011;43144;50.972;18.220;2022-09-11T13:20:57;5.50;;;5.10;;
57291;SDS011;43144;50.972;18.220;2022-09-11T13:23:28;5.10;;;4.80;;
57291;SDS011;43144;50.972;18.220;2022-09-11T13:25:57;5.40;;;5.00;;
57291;SDS011;43144;50.972;18.220;2022-09-11T13:28:26;5.80;;;5.40;;
57291;SDS011;43144;50.972;18.220;2022-09-11T13:30:56;5.10;;;4.70;;
57291;SDS011;43144;50.972;18.220;2022-09-11T13:33:26;4.80;;;4.50;;
57291;SDS011;43144;50.972;18.220;2022-09-11T13:35:55;4.80;;;4.50;;
57291;SDS011;43144;50.972;18.220;2022-09-11T13:38:25;5.90;;;5.40;;
57291;SDS011;43144;50.972;18.220;2022-09-11T13:40:55;5.50;;;5.10;;
57291;SDS011;43144;50.972;18.220;2022-09-11T13:43:25;6.40;;;5.90;;
57291;SDS011;43144;50.972;18.220;2022-09-11T13:48:35;6.80;;;5.70;;
57291;SDS011;43144;50.972;18.220;2022-09-11T13:51:04;5.40;;;4.90;;
57291;SDS011;43144;50.972;18.220;2022-09-11T13:53:36;5.30;;;5.00;;
57291;SDS011;43144;50.972;18.220;2022-09-11T13:56:14;5.80;;;5.30;;
57291;SDS011;43144;50.972;18.220;2022-09-11T13:58:44;5.50;;;5.00;;
57291;SDS011;43144;50.972;18.220;2022-09-11T14:01:12;5.60;;;5.20;;
57291;SDS011;43144;50.972;18.220;2022-09-11T14:03:43;5.20;;;4.80;;
57291;SDS011;43144;50.972;18.220;2022-09-11T14:06:14;5.10;;;4.70;;
57291;SDS011;43144;50.972;18.220;2022-09-11T14:08:47;5.30;;;4.90;;
57291;SDS011;43144;50.972;18.220;2022-09-11T14:13:48;4.60;;;4.30;;
57291;SDS011;43144;50.972;18.220;2022-09-11T14:16:20;6.30;;;5.00;;
57291;SDS011;43144;50.972;18.220;2022-09-11T14:18:51;4.90;;;4.60;;
57291;SDS011;43144;50.972;18.220;2022-09-11T14:21:21;5.30;;;5.00;;
57291;SDS011;43144;50.972;18.220;2022-09-11T14:23:52;5.10;;;4.70;;
57291;SDS011;43144;50.972;18.220;2022-09-11T14:26:21;4.70;;;4.30;;
57291;SDS011;43144;50.972;18.220;2022-09-11T14:28:59;5.20;;;4.90;;
57291;SDS011;43144;50.972;18.220;2022-09-11T14:31:30;4.80;;;4.50;;
57291;SDS011;43144;50.972;18.220;2022-09-11T14:34:05;4.60;;;4.20;;
57291;SDS011;43144;50.972;18.220;2022-09-11T14:36:39;4.10;;;3.80;;
57291;SDS011;43144;50.972;18.220;2022-09-11T14:39:11;4.40;;;4.00;;
57291;SDS011;43144;50.972;18.220;2022-09-11T14:41:44;4.50;;;4.20;;
57291;SDS011;43144;50.972;18.220;2022-09-11T14:44:13;4.30;;;4.00;;
57291;SDS011;43144;50.972;18.220;2022-09-11T14:46:43;3.90;;;3.60;;
57291;SDS011;43144;50.972;18.220;2022-09-11T14:49:11;4.30;;;3.90;;
57291;SDS011;43144;50.972;18.220;2022-09-11T14:51:39;4.20;;;3.90;;
57291;SDS011;43144;50.972;18.220;2022-09-11T14:54:11;4.30;;;3.80;;
57291;SDS011;43144;50.972;18.220;2022-09-11T14:56:41;4.00;;;3.70;;
57291;SDS011;43144;50.972;18.220;2022-09-11T14:59:09;3.50;;;3.20;;
57291;SDS011;43144;50.972;18.220;2022-09-11T15:01:38;3.10;;;2.90;;
57291;SDS011;43144;50.972;18.220;2022-09-11T15:04:09;4.40;;;2.70;;
57291;SDS011;43144;50.972;18.220;2022-09-11T15:06:39;2.70;;;2.50;;
57291;SDS011;43144;50.972;18.220;2022-09-11T15:09:07;2.20;;;2.10;;
57291;SDS011;43144;50.972;18.220;2022-09-11T15:11:35;2.40;;;2.20;;
57291;SDS011;43144;50.972;18.220;2022-09-11T15:14:04;2.50;;;2.30;;
57291;SDS011;43144;50.972;18.220;2022-09-11T15:16:33;2.70;;;2.50;;
57291;SDS011;43144;50.972;18.220;2022-09-11T15:19:01;3.50;;;2.10;;
57291;SDS011;43144;50.972;18.220;2022-09-11T15:21:30;2.80;;;2.60;;
57291;SDS011;43144;50.972;18.220;2022-09-11T15:23:58;2.90;;;2.70;;